Time;durP1;ratioP1;P1;durP2;ratioP2;P2;SDS_P1;SDS_P2;PMS_P1;PMS_P2;Temp;Humidity;BMP_temperature;BMP_pressure;BME280_temperature;BME280_humidity;BME280_pressure;Samples;Min_cycle;Max_cycle;Signal;HPM_P1;HPM_P2
2022/07/07 00:01:43;;;;;;;7.80;4.47;;;;;;;;;;5028831;28;20533;-57
2022/07/07 00:04:08;;;;;;;6.78;5.28;;;;;;;;;;5029497;28;20471;-57
2022/07/07 00:06:34;;;;;;;6.18;4.60;;;;;;;;;;5028026;28;20033;-57
2022/07/07 00:08:59;;;;;;;7.60;4.75;;;;;;;;;;5026620;28;20441;-57
2022/07/07 00:11:25;;;;;;;6.57;4.78;;;;;;;;;;5025299;28;20025;-57
2022/07/07 00:13:52;;;;;;;8.75;4.95;;;;;;;;;;5032125;28;20469;-57
2022/07/07 00:16:18;;;;;;;5.57;5.00;;;;;;;;;;5030052;28;20044;-58
2022/07/07 00:18:44;;;;;;;6.28;4.93;;;;;;;;;;5028504;28;20025;-57
2022/07/07 00:21:09;;;;;;;7.65;4.75;;;;;;;;;;5026560;28;20442;-57
2022/07/07 00:23:35;;;;;;;5.43;4.55;;;;;;;;;;5027654;28;20060;-56
2022/07/07 00:26:00;;;;;;;8.90;4.85;;;;;;;;;;5030818;28;20395;-56
2022/07/07 00:28:26;;;;;;;8.60;4.30;;;;;;;;;;5029929;28;20033;-56
2022/07/07 00:30:51;;;;;;;12.10;4.90;;;;;;;;;;5029657;28;20025;-56
2022/07/07 00:33:17;;;;;;;9.15;4.68;;;;;;;;;;5030224;28;20411;-56
2022/07/07 00:35:42;;;;;;;9.18;4.90;;;;;;;;;;5029346;28;20095;-56
2022/07/07 00:38:08;;;;;;;7.90;5.10;;;;;;;;;;5025292;28;20040;-56
2022/07/07 00:40:33;;;;;;;7.78;5.32;;;;;;;;;;5028199;28;20486;-56
2022/07/07 00:42:59;;;;;;;5.82;4.93;;;;;;;;;;5027500;28;20376;-56
2022/07/07 00:45:25;;;;;;;5.82;4.30;;;;;;;;;;5031191;28;20125;-56
2022/07/07 00:47:50;;;;;;;9.48;4.90;;;;;;;;;;5029050;28;20036;-56
2022/07/07 00:50:16;;;;;;;10.02;4.80;;;;;;;;;;5025897;28;20038;-56
2022/07/07 00:52:41;;;;;;;8.23;4.65;;;;;;;;;;5028204;28;20037;-55
2022/07/07 00:55:08;;;;;;;8.05;5.07;;;;;;;;;;5025193;28;20415;-56
2022/07/07 00:57:34;;;;;;;11.80;4.72;;;;;;;;;;5028400;28;20036;-57
2022/07/07 01:00:04;;;;;;;9.10;4.75;;;;;;;;;;5029354;28;20111;-56
2022/07/07 01:02:31;;;;;;;6.85;4.85;;;;;;;;;;5023955;28;20086;-56
2022/07/07 01:04:58;;;;;;;6.60;4.60;;;;;;;;;;5025771;28;20131;-58
2022/07/07 01:07:26;;;;;;;10.30;4.50;;;;;;;;;;5030476;28;20068;-57
2022/07/07 01:09:52;;;;;;;7.68;4.35;;;;;;;;;;5029775;28;20028;-57
2022/07/07 01:12:18;;;;;;;4.90;4.15;;;;;;;;;;5027341;28;20017;-57
2022/07/07 01:14:43;;;;;;;5.65;4.18;;;;;;;;;;5026428;28;20025;-58
2022/07/07 01:17:09;;;;;;;7.07;4.80;;;;;;;;;;5029597;28;20037;-57
2022/07/07 01:19:34;;;;;;;6.97;4.30;;;;;;;;;;5027451;28;20040;-57
2022/07/07 01:22:03;;;;;;;7.18;4.32;;;;;;;;;;5028572;28;20503;-56
2022/07/07 01:24:29;;;;;;;4.97;4.30;;;;;;;;;;5030704;28;20033;-58
2022/07/07 01:27:27;;;;;;;12.20;5.65;;;;;;;;;;5028582;28;20470;-58
2022/07/07 01:29:55;;;;;;;8.50;4.82;;;;;;;;;;5027869;28;20210;-56
2022/07/07 01:32:22;;;;;;;6.28;4.47;;;;;;;;;;5027318;28;20032;-56
2022/07/07 01:34:48;;;;;;;7.63;4.75;;;;;;;;;;5028289;28;20112;-57
2022/07/07 01:37:14;;;;;;;9.85;4.78;;;;;;;;;;5025990;28;20033;-57
2022/07/07 01:39:41;;;;;;;6.00;4.75;;;;;;;;;;5026270;28;20021;-57
2022/07/07 01:42:08;;;;;;;6.82;4.47;;;;;;;;;;5029316;28;20112;-57
2022/07/07 01:44:38;;;;;;;7.78;4.13;;;;;;;;;;5028600;28;20026;-57
2022/07/07 01:47:05;;;;;;;15.50;4.53;;;;;;;;;;5027358;28;20026;-57
2022/07/07 01:49:32;;;;;;;8.43;4.15;;;;;;;;;;5024697;28;20027;-57
2022/07/07 01:51:58;;;;;;;8.07;4.75;;;;;;;;;;5025532;28;20044;-57
2022/07/07 01:54:25;;;;;;;6.05;4.25;;;;;;;;;;5024885;28;20568;-57
2022/07/07 01:56:50;;;;;;;8.73;4.65;;;;;;;;;;5023292;28;20159;-56
2022/07/07 01:59:15;;;;;;;7.55;4.18;;;;;;;;;;5021905;28;20112;-57
2022/07/07 02:01:41;;;;;;;7.70;4.45;;;;;;;;;;5025052;28;20041;-57
2022/07/07 02:04:07;;;;;;;11.55;4.63;;;;;;;;;;5027556;28;20510;-56
2022/07/07 02:06:32;;;;;;;7.30;4.80;;;;;;;;;;5027654;28;20057;-56
2022/07/07 02:08:59;;;;;;;6.75;4.68;;;;;;;;;;5023451;28;20044;-57
2022/07/07 02:11:27;;;;;;;9.35;4.68;;;;;;;;;;5024635;28;20127;-57
2022/07/07 02:13:52;;;;;;;6.53;4.53;;;;;;;;;;5027129;28;20094;-57
2022/07/07 02:16:22;;;;;;;6.70;4.70;;;;;;;;;;5025388;28;20475;-57
2022/07/07 02:18:51;;;;;;;7.65;4.50;;;;;;;;;;5022565;28;20068;-57
2022/07/07 02:21:16;;;;;;;6.43;4.60;;;;;;;;;;5022583;28;20026;-56
2022/07/07 02:23:44;;;;;;;8.50;4.63;;;;;;;;;;5029405;28;20131;-57
2022/07/07 02:26:09;;;;;;;9.63;5.18;;;;;;;;;;5027685;28;20112;-57
2022/07/07 02:28:35;;;;;;;7.78;4.95;;;;;;;;;;5027725;28;20124;-56
2022/07/07 02:31:00;;;;;;;7.00;4.68;;;;;;;;;;5026109;28;20060;-56
2022/07/07 02:33:27;;;;;;;11.48;4.90;;;;;;;;;;5025630;28;20381;-57
2022/07/07 02:35:53;;;;;;;8.10;4.43;;;;;;;;;;5026372;28;20030;-56
2022/07/07 02:38:19;;;;;;;6.05;3.95;;;;;;;;;;5023000;28;20061;-57
2022/07/07 02:40:44;;;;;;;10.52;4.20;;;;;;;;;;5020468;28;20053;-57
2022/07/07 02:43:13;;;;;;;7.03;4.55;;;;;;;;;;5028845;28;20029;-56
2022/07/07 02:45:40;;;;;;;7.75;4.70;;;;;;;;;;5027311;28;20024;-57
2022/07/07 02:48:07;;;;;;;7.72;4.43;;;;;;;;;;5023193;28;20476;-57
2022/07/07 02:50:33;;;;;;;6.07;4.55;;;;;;;;;;5025598;28;20032;-56
2022/07/07 02:52:58;;;;;;;11.50;6.25;;;;;;;;;;5027427;28;20025;-56
2022/07/07 02:55:24;;;;;;;10.25;6.15;;;;;;;;;;5023478;28;20040;-56
2022/07/07 02:57:51;;;;;;;9.82;5.30;;;;;;;;;;5023874;28;20017;-56
2022/07/07 03:00:17;;;;;;;9.32;5.22;;;;;;;;;;5023131;28;20468;-56
2022/07/07 03:02:42;;;;;;;7.85;5.00;;;;;;;;;;5024829;28;20060;-57
2022/07/07 03:05:08;;;;;;;6.65;5.28;;;;;;;;;;5023663;28;20072;-56
2022/07/07 03:07:33;;;;;;;6.55;4.90;;;;;;;;;;5032684;28;20025;-57
2022/07/07 03:09:58;;;;;;;8.85;4.68;;;;;;;;;;5030095;28;20025;-57
2022/07/07 03:12:24;;;;;;;5.38;4.22;;;;;;;;;;5033122;28;20080;-57
2022/07/07 03:14:49;;;;;;;5.80;4.55;;;;;;;;;;5037378;28;20031;-57
2022/07/07 03:17:15;;;;;;;6.57;4.65;;;;;;;;;;5034777;28;20407;-57
2022/07/07 03:19:40;;;;;;;6.63;4.57;;;;;;;;;;5027884;28;20025;-56
2022/07/07 03:22:05;;;;;;;5.43;4.68;;;;;;;;;;5034615;28;20036;-57
2022/07/07 03:24:31;;;;;;;6.40;4.28;;;;;;;;;;5032353;28;20327;-57
2022/07/07 03:26:58;;;;;;;6.22;5.05;;;;;;;;;;5034499;28;20061;-56
2022/07/07 03:29:25;;;;;;;6.65;4.57;;;;;;;;;;5032482;28;20030;-57
2022/07/07 03:31:50;;;;;;;8.40;4.97;;;;;;;;;;5032100;28;20030;-57
2022/07/07 03:34:15;;;;;;;7.15;4.78;;;;;;;;;;5032510;28;20513;-56
2022/07/07 03:36:41;;;;;;;7.38;4.60;;;;;;;;;;5032755;28;20135;-56
2022/07/07 03:39:06;;;;;;;9.13;5.07;;;;;;;;;;5031371;28;20029;-56
2022/07/07 03:41:32;;;;;;;7.13;5.03;;;;;;;;;;5033300;28;20033;-56
2022/07/07 03:43:57;;;;;;;7.20;5.32;;;;;;;;;;5034721;28;20052;-57
2022/07/07 03:46:22;;;;;;;9.98;4.38;;;;;;;;;;5034190;28;20037;-57
2022/07/07 03:48:48;;;;;;;10.68;4.40;;;;;;;;;;5031511;28;20026;-56
2022/07/07 03:51:13;;;;;;;9.27;4.88;;;;;;;;;;5031632;28;20025;-57
2022/07/07 03:53:39;;;;;;;5.68;4.15;;;;;;;;;;5030466;28;20017;-57
2022/07/07 03:56:04;;;;;;;6.70;3.85;;;;;;;;;;5033697;28;20032;-57
2022/07/07 03:58:30;;;;;;;7.30;3.90;;;;;;;;;;5031288;28;20056;-57
2022/07/07 04:00:55;;;;;;;5.75;3.80;;;;;;;;;;5028512;28;20021;-57
2022/07/07 04:03:21;;;;;;;9.02;3.97;;;;;;;;;;5034232;28;20033;-57
2022/07/07 04:05:46;;;;;;;8.30;3.88;;;;;;;;;;5034758;28;20021;-57
2022/07/07 04:08:12;;;;;;;7.05;3.70;;;;;;;;;;5027697;28;20503;-56
2022/07/07 04:10:37;;;;;;;9.18;4.78;;;;;;;;;;5030703;28;20083;-56
2022/07/07 04:13:02;;;;;;;8.00;4.20;;;;;;;;;;5034111;28;20304;-56
2022/07/07 04:15:28;;;;;;;5.05;3.95;;;;;;;;;;5027165;28;20044;-56
2022/07/07 04:17:53;;;;;;;5.30;3.60;;;;;;;;;;5031116;28;20080;-56
2022/07/07 04:20:19;;;;;;;6.32;3.90;;;;;;;;;;5027149;28;20395;-58
2022/07/07 04:22:44;;;;;;;6.18;3.28;;;;;;;;;;5029950;28;20471;-59
2022/07/07 04:25:10;;;;;;;3.58;3.15;;;;;;;;;;5028913;28;20143;-58
2022/07/07 04:27:35;;;;;;;6.55;3.38;;;;;;;;;;5029130;28;20146;-58
2022/07/07 04:30:01;;;;;;;8.48;3.80;;;;;;;;;;5028533;28;20033;-58
2022/07/07 04:32:26;;;;;;;5.68;3.47;;;;;;;;;;5027485;28;20531;-58
2022/07/07 04:34:52;;;;;;;9.95;4.93;;;;;;;;;;5029657;28;20036;-58
2022/07/07 04:37:17;;;;;;;5.75;3.80;;;;;;;;;;5027736;28;20035;-58
2022/07/07 04:39:42;;;;;;;11.82;4.10;;;;;;;;;;5025798;28;20491;-58
2022/07/07 04:42:08;;;;;;;4.93;3.70;;;;;;;;;;5025379;28;20040;-58
2022/07/07 04:44:34;;;;;;;6.60;3.47;;;;;;;;;;5029162;28;20549;-59
2022/07/07 04:46:59;;;;;;;4.78;3.15;;;;;;;;;;5030039;28;20092;-58
2022/07/07 04:49:25;;;;;;;3.78;3.20;;;;;;;;;;5029390;28;20079;-58
2022/07/07 04:51:50;;;;;;;5.60;3.60;;;;;;;;;;5026859;28;20029;-59
2022/07/07 04:54:16;;;;;;;5.18;4.10;;;;;;;;;;5023016;28;20364;-59
2022/07/07 04:56:41;;;;;;;8.68;4.25;;;;;;;;;;5026145;28;20502;-59
2022/07/07 04:59:07;;;;;;;8.50;3.28;;;;;;;;;;5026156;28;20116;-59
2022/07/07 05:01:32;;;;;;;8.57;3.60;;;;;;;;;;5028082;28;20124;-59
2022/07/07 05:03:57;;;;;;;6.97;4.07;;;;;;;;;;5024604;28;20025;-58
2022/07/07 05:06:23;;;;;;;4.63;3.55;;;;;;;;;;5024219;28;20029;-59
2022/07/07 05:08:48;;;;;;;4.85;3.20;;;;;;;;;;5021635;28;20084;-51
2022/07/07 05:11:14;;;;;;;4.25;3.47;;;;;;;;;;5017590;28;20108;-49
2022/07/07 05:13:39;;;;;;;4.35;2.92;;;;;;;;;;5021776;28;20026;-59
2022/07/07 05:16:05;;;;;;;4.88;3.05;;;;;;;;;;5022662;28;20392;-58
2022/07/07 05:18:31;;;;;;;4.25;3.13;;;;;;;;;;5028075;28;20029;-58
2022/07/07 05:20:57;;;;;;;4.63;3.00;;;;;;;;;;5027118;28;20025;-58
2022/07/07 05:23:25;;;;;;;5.95;3.35;;;;;;;;;;5027547;28;20049;-58
2022/07/07 05:25:52;;;;;;;4.72;2.85;;;;;;;;;;5027564;28;20029;-58
2022/07/07 05:28:17;;;;;;;10.68;4.72;;;;;;;;;;5021656;28;20044;-58
2022/07/07 05:30:43;;;;;;;15.43;6.75;;;;;;;;;;5024387;28;20030;-59
2022/07/07 05:33:08;;;;;;;13.07;4.88;;;;;;;;;;5025613;28;20025;-58
2022/07/07 05:35:35;;;;;;;14.52;5.88;;;;;;;;;;5026559;28;20056;-58
2022/07/07 05:38:01;;;;;;;12.75;5.82;;;;;;;;;;5023077;28;20701;-58
2022/07/07 05:40:27;;;;;;;5.45;3.67;;;;;;;;;;5027351;28;20026;-58
2022/07/07 05:42:52;;;;;;;5.82;3.33;;;;;;;;;;5023801;28;20029;-58
2022/07/07 05:45:18;;;;;;;6.93;3.88;;;;;;;;;;5024186;28;20124;-58
2022/07/07 05:47:43;;;;;;;7.20;3.55;;;;;;;;;;5023673;28;20030;-58
2022/07/07 05:50:09;;;;;;;3.47;3.03;;;;;;;;;;5023901;28;20356;-57
2022/07/07 05:52:34;;;;;;;5.05;3.00;;;;;;;;;;5020991;28;20199;-58
2022/07/07 05:54:59;;;;;;;7.68;3.33;;;;;;;;;;5018398;28;20030;-58
2022/07/07 05:57:25;;;;;;;5.45;3.30;;;;;;;;;;5018862;28;20033;-59
2022/07/07 05:59:50;;;;;;;8.15;3.20;;;;;;;;;;5028714;28;20123;-57
2022/07/07 06:02:16;;;;;;;4.28;3.25;;;;;;;;;;5024682;28;20399;-58
2022/07/07 06:04:41;;;;;;;4.47;3.25;;;;;;;;;;5024802;28;20438;-57
2022/07/07 06:07:07;;;;;;;4.25;3.17;;;;;;;;;;5022884;28;20049;-58
2022/07/07 06:09:32;;;;;;;9.90;3.33;;;;;;;;;;5020932;28;20029;-58
2022/07/07 06:11:58;;;;;;;5.95;3.80;;;;;;;;;;5014921;28;20472;-58
2022/07/07 06:14:23;;;;;;;6.50;3.78;;;;;;;;;;5012866;28;20029;-59
2022/07/07 06:16:49;;;;;;;7.22;3.85;;;;;;;;;;5015784;28;20026;-58
2022/07/07 06:19:14;;;;;;;4.95;3.58;;;;;;;;;;5027113;28;20047;-58
2022/07/07 06:21:41;;;;;;;5.00;3.45;;;;;;;;;;5027279;28;20028;-58
2022/07/07 06:24:08;;;;;;;6.05;3.55;;;;;;;;;;5026881;28;20041;-58
2022/07/07 06:26:33;;;;;;;6.97;3.50;;;;;;;;;;5024409;28;20568;-58
2022/07/07 06:28:58;;;;;;;4.90;3.30;;;;;;;;;;5022509;28;20060;-58
2022/07/07 06:31:24;;;;;;;4.10;2.92;;;;;;;;;;5025018;28;20056;-58
2022/07/07 06:33:49;;;;;;;10.93;3.30;;;;;;;;;;5026309;28;20021;-58
2022/07/07 06:36:14;;;;;;;7.25;4.03;;;;;;;;;;5024794;28;20376;-58
2022/07/07 06:38:40;;;;;;;8.32;3.38;;;;;;;;;;5026024;28;20025;-58
2022/07/07 06:41:05;;;;;;;5.25;3.03;;;;;;;;;;5023666;28;20032;-58
2022/07/07 06:43:31;;;;;;;4.57;3.03;;;;;;;;;;5025392;28;20543;-57
2022/07/07 06:45:57;;;;;;;5.78;3.17;;;;;;;;;;5022344;28;20434;-57
2022/07/07 06:48:23;;;;;;;8.27;3.30;;;;;;;;;;5024807;28;20032;-58
2022/07/07 06:50:49;;;;;;;5.13;2.78;;;;;;;;;;5019655;28;20033;-59
2022/07/07 06:53:15;;;;;;;6.97;3.42;;;;;;;;;;5025765;28;20014;-59
2022/07/07 06:55:41;;;;;;;6.50;3.47;;;;;;;;;;5021622;28;20033;-58
2022/07/07 06:58:07;;;;;;;6.80;3.33;;;;;;;;;;5017287;28;20556;-58
2022/07/07 07:00:32;;;;;;;4.50;3.03;;;;;;;;;;5019986;28;20140;-58
2022/07/07 07:02:58;;;;;;;4.53;3.25;;;;;;;;;;5018527;28;20124;-58
2022/07/07 07:05:23;;;;;;;4.68;3.10;;;;;;;;;;5013756;28;20071;-58
2022/07/07 07:07:49;;;;;;;7.97;3.38;;;;;;;;;;5015311;28;20048;-58
2022/07/07 07:10:14;;;;;;;3.95;2.90;;;;;;;;;;5012946;28;20040;-58
2022/07/07 07:12:40;;;;;;;4.85;3.08;;;;;;;;;;5016356;28;20028;-58
2022/07/07 07:15:06;;;;;;;6.53;3.40;;;;;;;;;;5014076;28;20391;-58
2022/07/07 07:17:33;;;;;;;7.80;3.60;;;;;;;;;;5013009;28;20125;-58
2022/07/07 07:19:59;;;;;;;4.35;3.00;;;;;;;;;;5016171;28;20026;-58
2022/07/07 07:22:25;;;;;;;6.10;3.33;;;;;;;;;;5011936;28;20072;-58
2022/07/07 07:24:51;;;;;;;6.68;3.63;;;;;;;;;;5019049;28;20030;-58
2022/07/07 07:27:16;;;;;;;5.15;3.40;;;;;;;;;;5016445;28;20034;-58
2022/07/07 07:29:42;;;;;;;7.40;3.50;;;;;;;;;;5017179;28;20073;-58
2022/07/07 07:32:07;;;;;;;4.30;3.53;;;;;;;;;;5021942;28;20486;-58
2022/07/07 07:34:33;;;;;;;5.25;3.30;;;;;;;;;;5016425;28;20029;-58
2022/07/07 07:36:58;;;;;;;5.53;3.30;;;;;;;;;;5011507;28;20034;-58
2022/07/07 07:39:24;;;;;;;6.90;3.30;;;;;;;;;;5011209;28;20475;-58
2022/07/07 07:41:49;;;;;;;5.63;3.22;;;;;;;;;;5010878;28;20072;-57
2022/07/07 07:45:09;;;;;;;6.63;3.47;;;;;;;;;;5018311;28;20034;-58
2022/07/07 07:47:03;;;;;;;5.55;3.50;;;;;;;;;;5011449;28;20034;-57
2022/07/07 07:49:28;;;;;;;7.13;3.20;;;;;;;;;;5012669;28;20033;-58
2022/07/07 07:51:54;;;;;;;5.97;3.55;;;;;;;;;;5012708;28;20461;-58
2022/07/07 07:54:19;;;;;;;6.30;3.20;;;;;;;;;;5021310;28;20021;-57
2022/07/07 07:56:45;;;;;;;8.05;3.40;;;;;;;;;;5026652;28;20047;-58
2022/07/07 07:59:10;;;;;;;5.45;3.38;;;;;;;;;;5022579;28;20375;-58
2022/07/07 08:01:35;;;;;;;5.55;3.50;;;;;;;;;;5022876;28;20037;-57
2022/07/07 08:04:01;;;;;;;8.32;3.53;;;;;;;;;;5026198;28;20079;-57
2022/07/07 08:06:27;;;;;;;9.00;3.45;;;;;;;;;;5025453;28;20026;-57
2022/07/07 08:08:52;;;;;;;4.88;3.45;;;;;;;;;;5025374;28;20033;-58
2022/07/07 08:11:18;;;;;;;6.60;3.53;;;;;;;;;;5027161;28;20048;-58
2022/07/07 08:13:43;;;;;;;4.75;3.38;;;;;;;;;;5030094;28;20391;-58
2022/07/07 08:16:09;;;;;;;5.93;3.30;;;;;;;;;;5023637;28;20092;-58
2022/07/07 08:18:34;;;;;;;3.88;3.30;;;;;;;;;;5025413;28;20029;-58
2022/07/07 08:20:59;;;;;;;5.28;3.60;;;;;;;;;;5027282;28;20491;-58
2022/07/07 08:23:25;;;;;;;7.38;3.72;;;;;;;;;;5027301;28;20029;-57
2022/07/07 08:25:51;;;;;;;7.22;3.78;;;;;;;;;;5025754;28;20021;-58
2022/07/07 08:28:16;;;;;;;7.15;3.70;;;;;;;;;;5026010;28;20044;-58
2022/07/07 08:30:42;;;;;;;4.60;3.38;;;;;;;;;;5026353;28;20033;-58
2022/07/07 08:33:08;;;;;;;7.65;4.00;;;;;;;;;;5028147;28;20025;-57
2022/07/07 08:35:33;;;;;;;3.88;3.17;;;;;;;;;;5027243;28;20035;-58
2022/07/07 08:37:59;;;;;;;6.45;3.28;;;;;;;;;;5025250;28;20029;-57
2022/07/07 08:40:25;;;;;;;6.90;3.65;;;;;;;;;;5027125;28;20091;-58
2022/07/07 08:42:51;;;;;;;7.07;4.07;;;;;;;;;;5022958;28;20044;-58
2022/07/07 08:45:16;;;;;;;6.10;3.85;;;;;;;;;;5024639;28;20025;-58
2022/07/07 08:47:42;;;;;;;5.32;3.58;;;;;;;;;;5022859;28;20025;-58
2022/07/07 08:50:08;;;;;;;10.57;3.72;;;;;;;;;;5021342;28;20612;-57
2022/07/07 08:52:34;;;;;;;5.30;3.78;;;;;;;;;;5027136;28;20076;-58
2022/07/07 08:55:01;;;;;;;3.90;3.60;;;;;;;;;;5026212;28;20045;-58
2022/07/07 08:57:27;;;;;;;5.47;3.90;;;;;;;;;;5018907;28;20475;-58
2022/07/07 08:59:56;;;;;;;6.50;4.00;;;;;;;;;;5022886;28;20037;-57
2022/07/07 09:02:21;;;;;;;;;;;;;;;;;;5022865;28;20064;-57
2022/07/07 09:04:47;;;;;;;8.13;3.88;;;;;;;;;;5025317;28;19917;-57
2022/07/07 09:07:12;;;;;;;9.88;3.95;;;;;;;;;;5022026;28;20355;-59
2022/07/07 09:10:04;;;;;;;4.53;4.13;;;;;;;;;;5020954;28;20029;-58
2022/07/07 09:12:32;;;;;;;9.70;4.20;;;;;;;;;;5024853;28;20047;-58
2022/07/07 09:15:03;;;;;;;7.78;4.10;;;;;;;;;;5021757;28;20033;-58
2022/07/07 09:17:33;;;;;;;7.13;3.83;;;;;;;;;;5028478;28;20026;-58
2022/07/07 09:20:08;;;;;;;;;;;;;;;;;;5026606;28;20044;-58
2022/07/07 09:22:53;;;;;;;6.85;3.92;;;;;;;;;;5026053;28;19947;-58
2022/07/07 09:25:24;;;;;;;7.72;3.85;;;;;;;;;;5024212;28;20655;-58
2022/07/07 09:27:58;;;;;;;9.35;3.90;;;;;;;;;;5022381;28;20477;-59
2022/07/07 09:30:41;;;;;;;6.38;3.65;;;;;;;;;;5024452;28;20461;-58
2022/07/07 09:33:14;;;;;;;5.80;3.90;;;;;;;;;;5024778;28;20033;-58
2022/07/07 09:38:29;;;;;;;6.78;3.60;;;;;;;;;;5023161;28;20036;-58
2022/07/07 09:41:00;;;;;;;8.27;4.28;;;;;;;;;;5023849;28;20025;-58
2022/07/07 09:43:35;;;;;;;5.32;3.78;;;;;;;;;;5022084;28;20044;-58
2022/07/07 09:46:14;;;;;;;5.68;4.13;;;;;;;;;;5023881;28;20029;-58
2022/07/07 09:48:43;;;;;;;7.00;4.35;;;;;;;;;;5025899;28;20034;-58
2022/07/07 09:51:33;;;;;;;6.95;4.13;;;;;;;;;;5018046;28;20041;-58
2022/07/07 09:53:59;;;;;;;6.20;4.30;;;;;;;;;;5023777;28;20060;-58
2022/07/07 09:56:28;;;;;;;7.57;3.90;;;;;;;;;;5024350;28;20044;-58
2022/07/07 09:58:54;;;;;;;4.63;3.88;;;;;;;;;;5018773;28;20091;-58
2022/07/07 10:01:24;;;;;;;6.45;3.63;;;;;;;;;;5023939;28;20410;-59
2022/07/07 10:03:53;;;;;;;6.78;3.80;;;;;;;;;;5020243;28;20028;-58
2022/07/07 10:06:19;;;;;;;5.35;3.50;;;;;;;;;;5028115;28;20048;-59
2022/07/07 10:08:45;;;;;;;8.25;3.72;;;;;;;;;;5021412;28;20041;-59
2022/07/07 10:11:16;;;;;;;10.77;3.95;;;;;;;;;;5024219;28;20029;-59
2022/07/07 10:13:43;;;;;;;4.75;3.90;;;;;;;;;;5025216;28;20064;-58
2022/07/07 10:16:09;;;;;;;5.43;3.90;;;;;;;;;;5025445;28;20056;-59
2022/07/07 10:18:35;;;;;;;7.30;4.10;;;;;;;;;;5021964;28;20486;-59
2022/07/07 10:21:02;;;;;;;10.45;4.72;;;;;;;;;;5023954;28;20033;-59
2022/07/07 10:23:29;;;;;;;6.13;4.30;;;;;;;;;;5024948;28;20037;-59
2022/07/07 10:26:01;;;;;;;6.28;4.30;;;;;;;;;;5024388;28;20029;-58
2022/07/07 10:29:03;;;;;;;6.15;4.60;;;;;;;;;;5022932;28;20022;-58
2022/07/07 10:31:29;;;;;;;5.80;4.22;;;;;;;;;;4987147;28;20504;-58
2022/07/07 10:34:06;;;;;;;6.82;4.75;;;;;;;;;;5024623;28;20068;-58
2022/07/07 10:36:49;;;;;;;5.95;4.20;;;;;;;;;;5026427;28;20039;-58
2022/07/07 10:39:22;;;;;;;5.28;3.60;;;;;;;;;;5022115;28;20539;-55
2022/07/07 10:41:53;;;;;;;4.40;3.40;;;;;;;;;;5023660;28;20048;-55
2022/07/07 10:44:19;;;;;;;5.32;4.28;;;;;;;;;;5020768;28;20113;-56
2022/07/07 10:47:01;;;;;;;5.68;4.53;;;;;;;;;;5018740;28;20025;-56
2022/07/07 10:49:53;;;;;;;8.68;4.47;;;;;;;;;;5019766;28;20033;-56
2022/07/07 10:52:23;;;;;;;9.63;4.55;;;;;;;;;;5021482;28;20401;-56
2022/07/07 10:54:52;;;;;;;8.38;4.55;;;;;;;;;;5021946;28;20034;-56
2022/07/07 10:57:21;;;;;;;7.50;4.28;;;;;;;;;;5025700;28;20041;-56
2022/07/07 11:00:00;;;;;;;8.05;4.25;;;;;;;;;;5021585;28;20026;-56
2022/07/07 11:02:32;;;;;;;;;;;;;;;;;;5017762;28;20171;-56
2022/07/07 11:04:59;;;;;;;12.30;11.15;;;;;;;;;;5024444;28;19956;-56
2022/07/07 11:07:25;;;;;;;18.58;16.48;;;;;;;;;;5025392;28;20457;-55
2022/07/07 11:10:09;;;;;;;38.20;35.00;;;;;;;;;;5016820;28;20022;-57
2022/07/07 11:12:37;;;;;;;11.20;5.47;;;;;;;;;;5020330;28;20025;-56
2022/07/07 11:15:14;;;;;;;15.15;13.63;;;;;;;;;;5025889;28;20647;-56
2022/07/07 11:17:43;;;;;;;8.95;6.90;;;;;;;;;;5020463;28;20045;-56
2022/07/07 11:20:13;;;;;;;;;;;;;;;;;;5023392;28;20037;-56
2022/07/07 11:22:42;;;;;;;8.50;4.20;;;;;;;;;;5021602;28;20000;-57
2022/07/07 11:25:08;;;;;;;7.97;4.22;;;;;;;;;;5023129;28;20029;-56
2022/07/07 11:27:36;;;;;;;9.60;4.80;;;;;;;;;;5024305;28;20087;-56
2022/07/07 11:30:04;;;;;;;7.25;3.95;;;;;;;;;;5022946;28;20176;-56
2022/07/07 11:32:36;;;;;;;7.70;4.07;;;;;;;;;;5027734;28;20917;-56
2022/07/07 11:35:09;;;;;;;6.85;4.10;;;;;;;;;;5028179;28;20033;-56
2022/07/07 11:37:38;;;;;;;6.78;3.90;;;;;;;;;;5028402;28;20024;-56
2022/07/07 11:40:21;;;;;;;8.13;4.30;;;;;;;;;;5026439;28;20137;-56
2022/07/07 11:42:48;;;;;;;8.80;3.90;;;;;;;;;;5022441;28;20047;-56
2022/07/07 11:45:23;;;;;;;11.93;4.47;;;;;;;;;;5026106;28;20034;-56
2022/07/07 11:47:50;;;;;;;6.70;4.30;;;;;;;;;;5025260;28;20049;-57
2022/07/07 11:50:16;;;;;;;7.70;3.78;;;;;;;;;;5026159;28;20112;-56
2022/07/07 11:52:54;;;;;;;7.57;3.85;;;;;;;;;;5025731;28;20100;-56
2022/07/07 11:55:20;;;;;;;5.80;3.65;;;;;;;;;;5025547;28;20083;-59
2022/07/07 11:58:06;;;;;;;9.73;3.80;;;;;;;;;;5027272;28;20125;-59
2022/07/07 12:00:34;;;;;;;7.78;3.83;;;;;;;;;;5027266;28;20493;-58
2022/07/07 12:03:01;;;;;;;7.03;3.75;;;;;;;;;;5020284;28;20116;-59
2022/07/07 12:05:29;;;;;;;5.93;3.60;;;;;;;;;;5024843;28;20025;-59
2022/07/07 12:08:00;;;;;;;5.50;3.90;;;;;;;;;;5026418;28;20395;-59
2022/07/07 12:10:29;;;;;;;6.03;3.95;;;;;;;;;;5024417;28;20029;-59
2022/07/07 12:12:58;;;;;;;4.15;3.75;;;;;;;;;;5021078;28;20028;-59
2022/07/07 12:15:29;;;;;;;3.95;3.25;;;;;;;;;;5023824;28;20439;-59
2022/07/07 12:17:55;;;;;;;5.78;3.60;;;;;;;;;;5019584;28;20037;-59
2022/07/07 12:20:21;;;;;;;5.13;3.53;;;;;;;;;;5024512;28;20078;-59
2022/07/07 12:22:52;;;;;;;10.60;3.80;;;;;;;;;;5021477;28;20187;-59
2022/07/07 12:25:17;;;;;;;5.82;3.35;;;;;;;;;;5024762;28;20028;-59
2022/07/07 12:27:59;;;;;;;5.50;3.33;;;;;;;;;;5023484;28;20445;-59
2022/07/07 12:30:32;;;;;;;4.68;3.60;;;;;;;;;;5027825;28;20025;-59
2022/07/07 12:32:58;;;;;;;6.72;3.90;;;;;;;;;;5028226;28;20021;-59
2022/07/07 12:35:30;;;;;;;6.40;3.90;;;;;;;;;;5024763;28;20044;-59
2022/07/07 12:37:57;;;;;;;5.82;3.90;;;;;;;;;;5023846;28;20095;-59
2022/07/07 12:40:22;;;;;;;5.75;3.95;;;;;;;;;;5022184;28;20407;-58
2022/07/07 12:42:48;;;;;;;6.32;4.65;;;;;;;;;;5023429;28;20033;-58
2022/07/07 12:45:15;;;;;;;5.57;4.07;;;;;;;;;;5024680;28;20384;-59
2022/07/07 12:47:52;;;;;;;4.53;3.60;;;;;;;;;;5021123;28;20120;-58
2022/07/07 12:50:18;;;;;;;6.55;3.80;;;;;;;;;;5018909;28;20022;-58
2022/07/07 12:53:05;;;;;;;7.35;3.90;;;;;;;;;;5022650;28;20018;-59
2022/07/07 12:55:41;;;;;;;5.32;3.85;;;;;;;;;;5022507;28;20025;-58
2022/07/07 12:58:15;;;;;;;6.10;4.22;;;;;;;;;;5027998;28;20041;-58
2022/07/07 13:00:54;;;;;;;5.20;3.72;;;;;;;;;;5023394;28;20084;-58
2022/07/07 13:03:19;;;;;;;6.05;3.60;;;;;;;;;;5022205;28;20050;-58
2022/07/07 13:05:44;;;;;;;7.63;3.58;;;;;;;;;;5014813;28;20053;-59
2022/07/07 13:08:10;;;;;;;4.88;3.70;;;;;;;;;;5026978;28;20395;-58
2022/07/07 13:10:36;;;;;;;5.70;3.70;;;;;;;;;;5034650;28;20104;-58
2022/07/07 13:13:01;;;;;;;5.20;3.42;;;;;;;;;;5023533;28;20347;-58
2022/07/07 13:15:27;;;;;;;6.25;4.03;;;;;;;;;;5022984;28;20036;-59
2022/07/07 13:17:52;;;;;;;5.72;3.80;;;;;;;;;;5026645;28;20022;-60
2022/07/07 13:20:17;;;;;;;8.43;3.72;;;;;;;;;;5022813;28;20398;-59
2022/07/07 13:22:43;;;;;;;6.43;3.60;;;;;;;;;;5023511;28;20096;-59
2022/07/07 13:25:09;;;;;;;4.28;3.03;;;;;;;;;;5022255;28;20029;-58
2022/07/07 13:27:35;;;;;;;8.90;3.30;;;;;;;;;;5024364;28;20091;-58
2022/07/07 13:30:01;;;;;;;5.15;3.17;;;;;;;;;;5022151;28;20061;-58
2022/07/07 13:32:26;;;;;;;5.32;3.10;;;;;;;;;;5024423;28;20073;-58
2022/07/07 13:34:51;;;;;;;9.25;3.22;;;;;;;;;;5024701;28;20091;-59
2022/07/07 13:37:17;;;;;;;5.90;3.50;;;;;;;;;;5020932;28;20040;-59
2022/07/07 13:39:43;;;;;;;6.18;3.40;;;;;;;;;;5023788;28;20124;-60
2022/07/07 13:42:08;;;;;;;6.40;3.05;;;;;;;;;;5023731;28;20037;-59
2022/07/07 13:44:33;;;;;;;4.28;3.00;;;;;;;;;;5026207;28;20114;-59
2022/07/07 13:47:00;;;;;;;4.35;3.08;;;;;;;;;;5023288;28;20057;-58
2022/07/07 13:49:25;;;;;;;5.32;3.33;;;;;;;;;;5022004;28;20060;-59
2022/07/07 13:51:51;;;;;;;3.75;3.33;;;;;;;;;;5023335;28;20569;-58
2022/07/07 13:54:17;;;;;;;4.75;3.38;;;;;;;;;;5026949;28;20029;-59
2022/07/07 13:56:44;;;;;;;4.45;3.35;;;;;;;;;;5023696;28;20030;-58
2022/07/07 13:59:09;;;;;;;5.93;3.70;;;;;;;;;;5020255;28;20033;-59
2022/07/07 14:01:35;;;;;;;5.28;3.65;;;;;;;;;;5023214;28;20036;-59
2022/07/07 14:04:00;;;;;;;4.35;3.20;;;;;;;;;;5024609;28;20049;-59
2022/07/07 14:06:27;;;;;;;7.60;3.75;;;;;;;;;;5019502;28;20106;-53
2022/07/07 14:08:52;;;;;;;13.40;4.50;;;;;;;;;;5027655;28;20125;-50
2022/07/07 14:11:18;;;;;;;17.42;6.90;;;;;;;;;;5027052;28;20816;-53
2022/07/07 14:13:43;;;;;;;11.43;4.72;;;;;;;;;;5027240;28;20097;-50
2022/07/07 14:16:09;;;;;;;14.32;4.32;;;;;;;;;;5028604;28;20116;-52
2022/07/07 14:18:34;;;;;;;6.03;3.70;;;;;;;;;;5020080;28;20087;-50
2022/07/07 14:21:00;;;;;;;8.48;3.95;;;;;;;;;;5027209;28;20809;-50
2022/07/07 14:23:25;;;;;;;6.57;3.67;;;;;;;;;;5026960;28;20064;-52
2022/07/07 14:25:50;;;;;;;5.75;3.30;;;;;;;;;;5025339;28;20072;-51
2022/07/07 14:28:16;;;;;;;6.22;3.25;;;;;;;;;;5023548;28;20488;-52
2022/07/07 14:30:42;;;;;;;5.93;3.22;;;;;;;;;;5024901;28;20017;-49
2022/07/07 14:33:08;;;;;;;6.18;3.00;;;;;;;;;;5028207;28;20097;-50
2022/07/07 14:35:33;;;;;;;8.15;3.97;;;;;;;;;;5027426;28;20033;-49
2022/07/07 14:37:58;;;;;;;4.45;3.50;;;;;;;;;;5025210;28;20079;-51
2022/07/07 14:40:24;;;;;;;6.57;3.83;;;;;;;;;;5023935;28;20032;-49
2022/07/07 14:42:49;;;;;;;5.35;3.80;;;;;;;;;;5025365;28;20037;-52
2022/07/07 14:45:15;;;;;;;7.72;3.65;;;;;;;;;;5024458;28;20030;-51
2022/07/07 14:47:40;;;;;;;4.45;4.05;;;;;;;;;;5022302;28;20111;-50